sensor_id;sensor_type;location;lat;lon;timestamp;temperature;humidity
30764;DHT22;17497;51.476;7.770;2024-01-30T01:24:49;6.00;99.90
30764;DHT22;17497;51.476;7.770;2024-01-30T01:27:16;6.00;99.90
30764;DHT22;17497;51.476;7.770;2024-01-30T01:29:42;5.90;99.90
30764;DHT22;17497;51.476;7.770;2024-01-30T01:32:11;5.80;99.90
30764;DHT22;17497;51.476;7.770;2024-01-30T01:34:38;5.70;99.90
30764;DHT22;17497;51.476;7.770;2024-01-30T01:37:05;5.70;99.90
30764;DHT22;17497;51.476;7.770;2024-01-30T01:39:32;5.60;99.90
30764;DHT22;17497;51.476;7.770;2024-01-30T01:41:58;5.50;99.90
30764;DHT22;17497;51.476;7.770;2024-01-30T01:44:25;5.50;99.90
30764;DHT22;17497;51.476;7.770;2024-01-30T01:46:53;5.50;99.90
30764;DHT22;17497;51.476;7.770;2024-01-30T01:49:27;5.50;99.90
30764;DHT22;17497;51.476;7.770;2024-01-30T01:51:54;5.60;99.90
30764;DHT22;17497;51.476;7.770;2024-01-30T01:54:23;5.70;99.90
30764;DHT22;17497;51.476;7.770;2024-01-30T01:56:50;5.80;99.90
30764;DHT22;17497;51.476;7.770;2024-01-30T01:59:17;5.90;99.90
30764;DHT22;17497;51.476;7.770;2024-01-30T02:01:44;6.00;99.90
30764;DHT22;17497;51.476;7.770;2024-01-30T02:04:12;5.90;99.90
30764;DHT22;17497;51.476;7.770;2024-01-30T02:06:39;5.90;99.90
30764;DHT22;17497;51.476;7.770;2024-01-30T02:09:06;5.80;99.90
30764;DHT22;17497;51.476;7.770;2024-01-30T02:11:33;5.70;99.90
30764;DHT22;17497;51.476;7.770;2024-01-30T02:14:03;5.70;99.90
30764;DHT22;17497;51.476;7.770;2024-01-30T02:16:31;5.60;99.90
30764;DHT22;17497;51.476;7.770;2024-01-30T02:18:57;5.50;99.90
30764;DHT22;17497;51.476;7.770;2024-01-30T02:21:24;5.50;99.90
30764;DHT22;17497;51.476;7.770;2024-01-30T02:23:51;5.50;99.90
30764;DHT22;17497;51.476;7.770;2024-01-30T02:26:18;5.40;99.90
30764;DHT22;17497;51.476;7.770;2024-01-30T02:28:45;5.40;99.90
30764;DHT22;17497;51.476;7.770;2024-01-30T02:31:12;5.40;99.90
30764;DHT22;17497;51.476;7.770;2024-01-30T02:33:38;5.30;99.90
30764;DHT22;17497;51.476;7.770;2024-01-30T02:36:05;5.30;99.90
30764;DHT22;17497;51.476;7.770;2024-01-30T02:38:32;5.30;99.90
30764;DHT22;17497;51.476;7.770;2024-01-30T02:40:58;5.30;99.90
30764;DHT22;17497;51.476;7.770;2024-01-30T02:43:25;5.30;99.90
30764;DHT22;17497;51.476;7.770;2024-01-30T02:45:52;5.30;99.90
30764;DHT22;17497;51.476;7.770;2024-01-30T02:48:18;5.30;99.90
30764;DHT22;17497;51.476;7.770;2024-01-30T02:50:45;5.30;99.90
30764;DHT22;17497;51.476;7.770;2024-01-30T02:53:13;5.40;99.90
30764;DHT22;17497;51.476;7.770;2024-01-30T02:55:40;5.40;99.90
30764;DHT22;17497;51.476;7.770;2024-01-30T02:58:07;5.50;99.90
30764;DHT22;17497;51.476;7.770;2024-01-30T03:00:33;5.50;99.90
30764;DHT22;17497;51.476;7.770;2024-01-30T03:03:00;5.50;99.90
30764;DHT22;17497;51.476;7.770;2024-01-30T03:05:27;5.50;99.90
30764;DHT22;17497;51.476;7.770;2024-01-30T03:07:54;5.60;99.90
30764;DHT22;17497;51.476;7.770;2024-01-30T03:10:21;5.80;99.90
30764;DHT22;17497;51.476;7.770;2024-01-30T03:12:47;6.00;99.90
30764;DHT22;17497;51.476;7.770;2024-01-30T03:15:14;6.20;99.90
30764;DHT22;17497;51.476;7.770;2024-01-30T03:17:41;6.40;99.90
30764;DHT22;17497;51.476;7.770;2024-01-30T03:20:07;6.50;99.90
30764;DHT22;17497;51.476;7.770;2024-01-30T03:22:34;6.40;99.90
30764;DHT22;17497;51.476;7.770;2024-01-30T03:25:01;6.30;99.90
30764;DHT22;17497;51.476;7.770;2024-01-30T03:27:28;6.20;99.90
30764;DHT22;17497;51.476;7.770;2024-01-30T03:29:55;6.20;99.90
30764;DHT22;17497;51.476;7.770;2024-01-30T03:32:22;6.30;99.90
30764;DHT22;17497;51.476;7.770;2024-01-30T03:34:51;6.40;99.90
30764;DHT22;17497;51.476;7.770;2024-01-30T03:37:17;6.60;99.90
30764;DHT22;17497;51.476;7.770;2024-01-30T03:39:44;6.70;99.90
30764;DHT22;17497;51.476;7.770;2024-01-30T03:42:11;6.90;99.90
30764;DHT22;17497;51.476;7.770;2024-01-30T03:44:37;6.90;99.90
30764;DHT22;17497;51.476;7.770;2024-01-30T03:47:04;6.90;99.90
30764;DHT22;17497;51.476;7.770;2024-01-30T03:49:31;6.90;99.90
30764;DHT22;17497;51.476;7.770;2024-01-30T03:51:57;6.70;99.90
30764;DHT22;17497;51.476;7.770;2024-01-30T03:54:24;6.60;99.90
30764;DHT22;17497;51.476;7.770;2024-01-30T03:56:51;6.60;99.90
30764;DHT22;17497;51.476;7.770;2024-01-30T03:59:17;6.60;99.90
30764;DHT22;17497;51.476;7.770;2024-01-30T04:01:48;6.70;99.90
30764;DHT22;17497;51.476;7.770;2024-01-30T04:04:15;6.70;99.90
30764;DHT22;17497;51.476;7.770;2024-01-30T04:06:42;6.80;99.90
30764;DHT22;17497;51.476;7.770;2024-01-30T04:09:08;6.80;99.90
30764;DHT22;17497;51.476;7.770;2024-01-30T04:11:35;6.80;99.90
30764;DHT22;17497;51.476;7.770;2024-01-30T04:14:02;6.80;99.90
30764;DHT22;17497;51.476;7.770;2024-01-30T04:16:28;6.80;99.90
30764;DHT22;17497;51.476;7.770;2024-01-30T04:18:55;6.80;99.90
30764;DHT22;17497;51.476;7.770;2024-01-30T04:21:22;6.80;99.90
30764;DHT22;17497;51.476;7.770;2024-01-30T04:23:50;6.80;99.90
30764;DHT22;17497;51.476;7.770;2024-01-30T04:26:17;6.80;99.90
30764;DHT22;17497;51.476;7.770;2024-01-30T04:28:44;6.90;99.90
30764;DHT22;17497;51.476;7.770;2024-01-30T04:31:11;7.00;99.90
30764;DHT22;17497;51.476;7.770;2024-01-30T04:33:38;7.10;99.90
30764;DHT22;17497;51.476;7.770;2024-01-30T04:36:07;7.10;99.90
30764;DHT22;17497;51.476;7.770;2024-01-30T04:38:35;7.10;99.90
30764;DHT22;17497;51.476;7.770;2024-01-30T04:41:02;7.20;99.90
30764;DHT22;17497;51.476;7.770;2024-01-30T04:43:28;7.10;99.90
30764;DHT22;17497;51.476;7.770;2024-01-30T04:45:55;7.10;99.90
30764;DHT22;17497;51.476;7.770;2024-01-30T04:48:22;7.10;99.90
30764;DHT22;17497;51.476;7.770;2024-01-30T04:50:49;7.10;99.90
30764;DHT22;17497;51.476;7.770;2024-01-30T04:53:17;7.10;99.90
30764;DHT22;17497;51.476;7.770;2024-01-30T04:55:44;7.00;99.90
30764;DHT22;17497;51.476;7.770;2024-01-30T04:58:10;6.90;99.90
30764;DHT22;17497;51.476;7.770;2024-01-30T05:00:37;7.00;99.90
30764;DHT22;17497;51.476;7.770;2024-01-30T05:03:04;7.00;99.90
30764;DHT22;17497;51.476;7.770;2024-01-30T05:05:30;7.00;99.90
30764;DHT22;17497;51.476;7.770;2024-01-30T05:07:57;7.00;99.90
30764;DHT22;17497;51.476;7.770;2024-01-30T05:10:23;7.00;99.90
30764;DHT22;17497;51.476;7.770;2024-01-30T05:12:50;6.90;99.90
30764;DHT22;17497;51.476;7.770;2024-01-30T05:15:17;6.90;99.90
30764;DHT22;17497;51.476;7.770;2024-01-30T05:17:44;6.80;99.90
30764;DHT22;17497;51.476;7.770;2024-01-30T05:20:10;6.70;99.90
30764;DHT22;17497;51.476;7.770;2024-01-30T05:22:37;6.60;99.90
30764;DHT22;17497;51.476;7.770;2024-01-30T05:25:05;6.50;99.90
30764;DHT22;17497;51.476;7.770;2024-01-30T05:27:32;6.40;99.90
30764;DHT22;17497;51.476;7.770;2024-01-30T05:29:58;6.20;99.90
30764;DHT22;17497;51.476;7.770;2024-01-30T05:32:25;6.10;99.90
30764;DHT22;17497;51.476;7.770;2024-01-30T05:34:52;6.10;99.90
30764;DHT22;17497;51.476;7.770;2024-01-30T05:37:18;6.00;99.90
30764;DHT22;17497;51.476;7.770;2024-01-30T05:39:45;5.90;99.90
30764;DHT22;17497;51.476;7.770;2024-01-30T05:42:12;5.80;99.90
30764;DHT22;17497;51.476;7.770;2024-01-30T05:44:38;5.90;99.90
30764;DHT22;17497;51.476;7.770;2024-01-30T05:47:05;5.80;99.90
30764;DHT22;17497;51.476;7.770;2024-01-30T05:49:32;5.90;99.90
30764;DHT22;17497;51.476;7.770;2024-01-30T05:51:59;5.90;99.90
30764;DHT22;17497;51.476;7.770;2024-01-30T05:54:25;5.90;99.90
30764;DHT22;17497;51.476;7.770;2024-01-30T05:56:52;6.00;99.90
30764;DHT22;17497;51.476;7.770;2024-01-30T05:59:19;6.10;99.90
30764;DHT22;17497;51.476;7.770;2024-01-30T06:01:46;6.20;99.90
30764;DHT22;17497;51.476;7.770;2024-01-30T06:04:13;6.20;99.90
30764;DHT22;17497;51.476;7.770;2024-01-30T06:06:40;6.20;99.90
30764;DHT22;17497;51.476;7.770;2024-01-30T06:09:07;6.20;99.90
30764;DHT22;17497;51.476;7.770;2024-01-30T06:11:36;6.20;99.90
30764;DHT22;17497;51.476;7.770;2024-01-30T06:14:03;6.10;99.90
30764;DHT22;17497;51.476;7.770;2024-01-30T06:16:29;6.10;99.90
30764;DHT22;17497;51.476;7.770;2024-01-30T06:18:57;6.10;99.90
30764;DHT22;17497;51.476;7.770;2024-01-30T06:21:23;6.00;99.90
30764;DHT22;17497;51.476;7.770;2024-01-30T06:23:50;6.00;99.90
30764;DHT22;17497;51.476;7.770;2024-01-30T06:26:17;5.90;99.90
30764;DHT22;17497;51.476;7.770;2024-01-30T06:28:43;5.90;99.90
30764;DHT22;17497;51.476;7.770;2024-01-30T06:31:10;5.80;99.90
30764;DHT22;17497;51.476;7.770;2024-01-30T06:33:37;5.70;99.90
30764;DHT22;17497;51.476;7.770;2024-01-30T06:36:04;5.70;99.90
30764;DHT22;17497;51.476;7.770;2024-01-30T06:38:41;5.70;99.90
30764;DHT22;17497;51.476;7.770;2024-01-30T06:41:19;5.60;99.90
30764;DHT22;17497;51.476;7.770;2024-01-30T06:43:46;5.60;99.90
30764;DHT22;17497;51.476;7.770;2024-01-30T06:46:13;5.60;99.90
30764;DHT22;17497;51.476;7.770;2024-01-30T06:48:40;5.60;99.90
30764;DHT22;17497;51.476;7.770;2024-01-30T06:51:07;5.70;99.90
30764;DHT22;17497;51.476;7.770;2024-01-30T06:53:34;5.80;99.90
30764;DHT22;17497;51.476;7.770;2024-01-30T06:56:01;5.80;99.90
30764;DHT22;17497;51.476;7.770;2024-01-30T06:58:31;6.00;99.90
30764;DHT22;17497;51.476;7.770;2024-01-30T07:00:59;6.00;99.90
30764;DHT22;17497;51.476;7.770;2024-01-30T07:03:26;6.00;99.90
30764;DHT22;17497;51.476;7.770;2024-01-30T07:05:53;6.00;99.90
30764;DHT22;17497;51.476;7.770;2024-01-30T07:08:19;6.10;99.90
30764;DHT22;17497;51.476;7.770;2024-01-30T07:10:49;6.30;99.90
30764;DHT22;17497;51.476;7.770;2024-01-30T07:13:16;6.40;99.90
30764;DHT22;17497;51.476;7.770;2024-01-30T07:15:43;6.50;99.90
30764;DHT22;17497;51.476;7.770;2024-01-30T07:18:10;6.50;99.90
30764;DHT22;17497;51.476;7.770;2024-01-30T07:20:36;6.50;99.90
30764;DHT22;17497;51.476;7.770;2024-01-30T07:25:38;6.40;99.90
30764;DHT22;17497;51.476;7.770;2024-01-30T07:28:08;6.30;99.90
30764;DHT22;17497;51.476;7.770;2024-01-30T07:30:38;6.20;99.90
30764;DHT22;17497;51.476;7.770;2024-01-30T07:33:05;6.20;99.90
30764;DHT22;17497;51.476;7.770;2024-01-30T07:35:31;6.10;99.90
30764;DHT22;17497;51.476;7.770;2024-01-30T07:37:58;6.20;99.90
30764;DHT22;17497;51.476;7.770;2024-01-30T07:40:25;6.10;99.90
30764;DHT22;17497;51.476;7.770;2024-01-30T07:42:52;6.20;99.90
30764;DHT22;17497;51.476;7.770;2024-01-30T07:45:19;6.20;99.90
30764;DHT22;17497;51.476;7.770;2024-01-30T07:47:51;6.30;99.90
30764;DHT22;17497;51.476;7.770;2024-01-30T07:50:17;6.50;99.90
30764;DHT22;17497;51.476;7.770;2024-01-30T07:52:45;6.80;99.90
30764;DHT22;17497;51.476;7.770;2024-01-30T07:55:12;6.90;99.90
30764;DHT22;17497;51.476;7.770;2024-01-30T07:57:39;7.00;99.90
30764;DHT22;17497;51.476;7.770;2024-01-30T08:00:06;7.10;99.90
30764;DHT22;17497;51.476;7.770;2024-01-30T08:02:33;7.20;99.90
30764;DHT22;17497;51.476;7.770;2024-01-30T08:05:00;7.40;99.90
30764;DHT22;17497;51.476;7.770;2024-01-30T08:07:27;7.60;99.90
30764;DHT22;17497;51.476;7.770;2024-01-30T08:09:56;7.80;99.90
30764;DHT22;17497;51.476;7.770;2024-01-30T08:12:22;7.80;99.90
30764;DHT22;17497;51.476;7.770;2024-01-30T08:14:49;7.90;99.90
30764;DHT22;17497;51.476;7.770;2024-01-30T08:17:16;8.10;99.90
30764;DHT22;17497;51.476;7.770;2024-01-30T08:19:42;8.10;99.90
30764;DHT22;17497;51.476;7.770;2024-01-30T08:22:09;8.10;99.90
30764;DHT22;17497;51.476;7.770;2024-01-30T08:24:35;8.20;99.90
30764;DHT22;17497;51.476;7.770;2024-01-30T08:27:02;8.30;99.90
30764;DHT22;17497;51.476;7.770;2024-01-30T08:29:29;8.20;99.90
30764;DHT22;17497;51.476;7.770;2024-01-30T08:31:55;8.10;99.90
30764;DHT22;17497;51.476;7.770;2024-01-30T08:34:22;8.10;99.90
30764;DHT22;17497;51.476;7.770;2024-01-30T08:36:49;8.00;99.90
30764;DHT22;17497;51.476;7.770;2024-01-30T08:39:16;8.00;99.90
30764;DHT22;17497;51.476;7.770;2024-01-30T08:41:42;8.00;99.90
30764;DHT22;17497;51.476;7.770;2024-01-30T08:44:09;8.00;99.90
30764;DHT22;17497;51.476;7.770;2024-01-30T08:46:37;8.10;99.90
30764;DHT22;17497;51.476;7.770;2024-01-30T08:49:04;8.10;99.90
30764;DHT22;17497;51.476;7.770;2024-01-30T08:51:31;8.20;99.90
30764;DHT22;17497;51.476;7.770;2024-01-30T08:53:58;8.20;99.90
30764;DHT22;17497;51.476;7.770;2024-01-30T08:56:24;8.30;99.90
30764;DHT22;17497;51.476;7.770;2024-01-30T08:58:52;8.40;99.90
30764;DHT22;17497;51.476;7.770;2024-01-30T09:01:18;8.50;99.90
30764;DHT22;17497;51.476;7.770;2024-01-30T09:03:45;8.60;99.90
30764;DHT22;17497;51.476;7.770;2024-01-30T09:06:13;8.60;99.90
30764;DHT22;17497;51.476;7.770;2024-01-30T09:08:40;8.70;99.90
30764;DHT22;17497;51.476;7.770;2024-01-30T09:11:13;8.70;99.90
30764;DHT22;17497;51.476;7.770;2024-01-30T09:13:40;8.80;99.90
30764;DHT22;17497;51.476;7.770;2024-01-30T09:16:09;8.90;99.90
30764;DHT22;17497;51.476;7.770;2024-01-30T09:18:36;9.10;99.90
30764;DHT22;17497;51.476;7.770;2024-01-30T09:21:03;9.20;99.90
30764;DHT22;17497;51.476;7.770;2024-01-30T09:23:29;9.40;99.90
30764;DHT22;17497;51.476;7.770;2024-01-30T09:25:56;9.50;99.90
30764;DHT22;17497;51.476;7.770;2024-01-30T09:28:23;9.70;99.90
30764;DHT22;17497;51.476;7.770;2024-01-30T09:30:53;9.80;99.90
30764;DHT22;17497;51.476;7.770;2024-01-30T09:33:19;10.00;99.90
30764;DHT22;17497;51.476;7.770;2024-01-30T09:35:46;10.10;99.90
30764;DHT22;17497;51.476;7.770;2024-01-30T09:38:13;10.10;99.90
30764;DHT22;17497;51.476;7.770;2024-01-30T09:40:40;10.10;99.90
30764;DHT22;17497;51.476;7.770;2024-01-30T09:43:08;10.20;99.90
30764;DHT22;17497;51.476;7.770;2024-01-30T09:45:37;10.20;99.90
30764;DHT22;17497;51.476;7.770;2024-01-30T09:48:04;10.30;99.90
30764;DHT22;17497;51.476;7.770;2024-01-30T09:50:30;10.30;99.90
30764;DHT22;17497;51.476;7.770;2024-01-30T09:52:57;10.20;99.90
30764;DHT22;17497;51.476;7.770;2024-01-30T09:55:25;10.30;99.90
30764;DHT22;17497;51.476;7.770;2024-01-30T09:57:52;10.30;99.90
30764;DHT22;17497;51.476;7.770;2024-01-30T10:00:19;10.40;99.90
30764;DHT22;17497;51.476;7.770;2024-01-30T10:02:45;10.40;99.90
30764;DHT22;17497;51.476;7.770;2024-01-30T10:05:13;10.50;99.90
30764;DHT22;17497;51.476;7.770;2024-01-30T10:07:49;10.70;99.90
30764;DHT22;17497;51.476;7.770;2024-01-30T10:10:16;10.90;99.90
30764;DHT22;17497;51.476;7.770;2024-01-30T10:12:42;11.10;99.90
30764;DHT22;17497;51.476;7.770;2024-01-30T10:15:10;11.20;99.90
30764;DHT22;17497;51.476;7.770;2024-01-30T10:17:37;11.20;99.90
30764;DHT22;17497;51.476;7.770;2024-01-30T10:20:04;11.30;99.90
30764;DHT22;17497;51.476;7.770;2024-01-30T10:22:31;11.30;99.90
30764;DHT22;17497;51.476;7.770;2024-01-30T10:24:58;11.40;99.90
30764;DHT22;17497;51.476;7.770;2024-01-30T10:27:30;11.50;99.90
30764;DHT22;17497;51.476;7.770;2024-01-30T10:29:57;11.50;99.90
30764;DHT22;17497;51.476;7.770;2024-01-30T10:32:24;11.60;99.90
30764;DHT22;17497;51.476;7.770;2024-01-30T10:34:51;11.70;99.90
30764;DHT22;17497;51.476;7.770;2024-01-30T10:37:18;11.80;99.90
30764;DHT22;17497;51.476;7.770;2024-01-30T10:39:45;12.00;99.90
30764;DHT22;17497;51.476;7.770;2024-01-30T10:42:17;12.00;99.90
30764;DHT22;17497;51.476;7.770;2024-01-30T10:44:48;12.00;99.90
30764;DHT22;17497;51.476;7.770;2024-01-30T10:47:21;12.10;99.90
30764;DHT22;17497;51.476;7.770;2024-01-30T10:49:49;12.10;99.90
30764;DHT22;17497;51.476;7.770;2024-01-30T10:52:17;12.00;99.90
30764;DHT22;17497;51.476;7.770;2024-01-30T10:54:44;12.00;99.90
30764;DHT22;17497;51.476;7.770;2024-01-30T10:57:11;11.90;99.90
30764;DHT22;17497;51.476;7.770;2024-01-30T10:59:38;12.00;99.90
30764;DHT22;17497;51.476;7.770;2024-01-30T11:02:05;12.10;99.90
30764;DHT22;17497;51.476;7.770;2024-01-30T11:04:36;12.20;99.90
30764;DHT22;17497;51.476;7.770;2024-01-30T11:07:13;12.30;99.90
30764;DHT22;17497;51.476;7.770;2024-01-30T11:09:40;12.10;99.90
30764;DHT22;17497;51.476;7.770;2024-01-30T11:12:12;12.00;99.90
30764;DHT22;17497;51.476;7.770;2024-01-30T11:14:38;12.10;99.90
30764;DHT22;17497;51.476;7.770;2024-01-30T11:17:06;12.20;99.90
30764;DHT22;17497;51.476;7.770;2024-01-30T11:19:33;12.20;99.90
30764;DHT22;17497;51.476;7.770;2024-01-30T11:22:00;12.20;99.90
30764;DHT22;17497;51.476;7.770;2024-01-30T11:24:29;12.20;99.90
30764;DHT22;17497;51.476;7.770;2024-01-30T11:26:56;12.10;99.90
30764;DHT22;17497;51.476;7.770;2024-01-30T11:29:27;12.00;99.90
30764;DHT22;17497;51.476;7.770;2024-01-30T11:31:54;12.20;99.90
30764;DHT22;17497;51.476;7.770;2024-01-30T11:34:21;12.30;99.90
30764;DHT22;17497;51.476;7.770;2024-01-30T11:36:56;12.40;99.90
30764;DHT22;17497;51.476;7.770;2024-01-30T11:39:25;12.60;99.90
30764;DHT22;17497;51.476;7.770;2024-01-30T11:41:52;12.90;99.90
30764;DHT22;17497;51.476;7.770;2024-01-30T11:44:33;13.20;99.90
30764;DHT22;17497;51.476;7.770;2024-01-30T11:46:59;13.30;99.90
30764;DHT22;17497;51.476;7.770;2024-01-30T11:49:26;13.20;99.90
30764;DHT22;17497;51.476;7.770;2024-01-30T11:51:53;13.10;99.90
30764;DHT22;17497;51.476;7.770;2024-01-30T11:54:20;13.00;99.90
30764;DHT22;17497;51.476;7.770;2024-01-30T11:56:46;13.20;99.90
30764;DHT22;17497;51.476;7.770;2024-01-30T11:59:13;13.10;99.90
30764;DHT22;17497;51.476;7.770;2024-01-30T12:01:40;13.10;99.90
30764;DHT22;17497;51.476;7.770;2024-01-30T12:04:07;12.90;99.90
30764;DHT22;17497;51.476;7.770;2024-01-30T12:06:36;12.90;99.90
30764;DHT22;17497;51.476;7.770;2024-01-30T12:09:03;13.30;99.90
30764;DHT22;17497;51.476;7.770;2024-01-30T12:11:48;13.60;99.90
30764;DHT22;17497;51.476;7.770;2024-01-30T12:14:16;13.60;99.90
30764;DHT22;17497;51.476;7.770;2024-01-30T12:16:43;13.60;99.90
30764;DHT22;17497;51.476;7.770;2024-01-30T12:19:09;13.60;99.90
30764;DHT22;17497;51.476;7.770;2024-01-30T12:21:37;13.90;99.90
30764;DHT22;17497;51.476;7.770;2024-01-30T12:24:04;13.70;99.90
30764;DHT22;17497;51.476;7.770;2024-01-30T12:26:33;13.50;99.90
30764;DHT22;17497;51.476;7.770;2024-01-30T12:29:00;13.50;99.90
30764;DHT22;17497;51.476;7.770;2024-01-30T12:31:28;13.50;99.90
30764;DHT22;17497;51.476;7.770;2024-01-30T12:33:55;13.50;99.90
30764;DHT22;17497;51.476;7.770;2024-01-30T12:36:23;13.40;99.90
30764;DHT22;17497;51.476;7.770;2024-01-30T12:38:49;13.40;99.90
30764;DHT22;17497;51.476;7.770;2024-01-30T12:41:16;13.40;99.90
30764;DHT22;17497;51.476;7.770;2024-01-30T12:43:43;13.60;99.90
30764;DHT22;17497;51.476;7.770;2024-01-30T12:46:10;13.90;99.90
30764;DHT22;17497;51.476;7.770;2024-01-30T12:48:37;13.60;99.90
30764;DHT22;17497;51.476;7.770;2024-01-30T12:51:03;13.60;99.90
30764;DHT22;17497;51.476;7.770;2024-01-30T12:53:30;13.60;99.90
30764;DHT22;17497;51.476;7.770;2024-01-30T12:55:57;13.50;99.90
30764;DHT22;17497;51.476;7.770;2024-01-30T12:58:24;13.00;99.90
30764;DHT22;17497;51.476;7.770;2024-01-30T13:00:51;12.80;99.90
30764;DHT22;17497;51.476;7.770;2024-01-30T13:03:18;12.70;99.90
30764;DHT22;17497;51.476;7.770;2024-01-30T13:05:44;12.50;99.90
30764;DHT22;17497;51.476;7.770;2024-01-30T13:08:11;12.40;99.90
30764;DHT22;17497;51.476;7.770;2024-01-30T13:10:37;12.30;99.90
30764;DHT22;17497;51.476;7.770;2024-01-30T13:13:04;12.20;99.90
30764;DHT22;17497;51.476;7.770;2024-01-30T13:15:33;12.10;99.90
30764;DHT22;17497;51.476;7.770;2024-01-30T13:18:00;12.10;99.90
30764;DHT22;17497;51.476;7.770;2024-01-30T13:20:26;12.10;99.90
30764;DHT22;17497;51.476;7.770;2024-01-30T13:22:53;12.10;99.90
30764;DHT22;17497;51.476;7.770;2024-01-30T13:25:20;12.00;99.90
30764;DHT22;17497;51.476;7.770;2024-01-30T13:27:47;12.00;99.90
30764;DHT22;17497;51.476;7.770;2024-01-30T13:30:13;12.00;99.90
30764;DHT22;17497;51.476;7.770;2024-01-30T13:32:40;11.90;99.90
30764;DHT22;17497;51.476;7.770;2024-01-30T13:35:10;11.80;99.90
30764;DHT22;17497;51.476;7.770;2024-01-30T13:37:37;11.80;99.90
30764;DHT22;17497;51.476;7.770;2024-01-30T13:40:04;11.80;99.90
30764;DHT22;17497;51.476;7.770;2024-01-30T13:42:36;11.70;99.90
30764;DHT22;17497;51.476;7.770;2024-01-30T13:45:02;11.70;99.90
30764;DHT22;17497;51.476;7.770;2024-01-30T13:47:30;11.70;99.90
30764;DHT22;17497;51.476;7.770;2024-01-30T13:49:58;11.70;99.90
30764;DHT22;17497;51.476;7.770;2024-01-30T13:52:26;11.60;99.90
30764;DHT22;17497;51.476;7.770;2024-01-30T13:54:57;11.60;99.90
30764;DHT22;17497;51.476;7.770;2024-01-30T13:57:24;11.60;99.90
30764;DHT22;17497;51.476;7.770;2024-01-30T13:59:53;11.60;99.90
30764;DHT22;17497;51.476;7.770;2024-01-30T14:02:19;11.60;99.90
30764;DHT22;17497;51.476;7.770;2024-01-30T14:04:47;11.50;99.90
30764;DHT22;17497;51.476;7.770;2024-01-30T14:07:14;11.50;99.90
30764;DHT22;17497;51.476;7.770;2024-01-30T14:09:40;11.50;99.90
30764;DHT22;17497;51.476;7.770;2024-01-30T14:12:07;11.50;99.90
30764;DHT22;17497;51.476;7.770;2024-01-30T14:14:34;11.50;99.90
30764;DHT22;17497;51.476;7.770;2024-01-30T14:17:01;11.50;99.90
30764;DHT22;17497;51.476;7.770;2024-01-30T14:19:28;11.50;99.90
30764;DHT22;17497;51.476;7.770;2024-01-30T14:21:54;11.50;99.90
30764;DHT22;17497;51.476;7.770;2024-01-30T14:24:21;11.40;99.90
30764;DHT22;17497;51.476;7.770;2024-01-30T14:26:48;11.40;99.90
30764;DHT22;17497;51.476;7.770;2024-01-30T14:29:15;11.40;99.90
30764;DHT22;17497;51.476;7.770;2024-01-30T14:31:42;11.30;99.90
30764;DHT22;17497;51.476;7.770;2024-01-30T14:34:08;11.30;99.90
30764;DHT22;17497;51.476;7.770;2024-01-30T14:36:37;11.30;99.90
30764;DHT22;17497;51.476;7.770;2024-01-30T14:39:04;11.20;99.90
30764;DHT22;17497;51.476;7.770;2024-01-30T14:41:30;11.30;99.90
30764;DHT22;17497;51.476;7.770;2024-01-30T14:43:57;11.30;99.90
30764;DHT22;17497;51.476;7.770;2024-01-30T14:46:24;11.20;99.90
30764;DHT22;17497;51.476;7.770;2024-01-30T14:48:51;11.20;99.90
30764;DHT22;17497;51.476;7.770;2024-01-30T14:51:18;11.10;99.90
30764;DHT22;17497;51.476;7.770;2024-01-30T14:53:45;11.10;99.90
30764;DHT22;17497;51.476;7.770;2024-01-30T14:56:11;11.10;99.90
30764;DHT22;17497;51.476;7.770;2024-01-30T14:58:38;11.20;99.90
30764;DHT22;17497;51.476;7.770;2024-01-30T15:01:04;11.20;99.90
30764;DHT22;17497;51.476;7.770;2024-01-30T15:03:31;11.20;99.90
30764;DHT22;17497;51.476;7.770;2024-01-30T15:05:58;11.30;99.90
30764;DHT22;17497;51.476;7.770;2024-01-30T15:08:27;11.20;99.90
30764;DHT22;17497;51.476;7.770;2024-01-30T15:10:56;11.30;99.90
30764;DHT22;17497;51.476;7.770;2024-01-30T15:13:23;11.20;99.90
30764;DHT22;17497;51.476;7.770;2024-01-30T15:15:50;11.30;99.90
30764;DHT22;17497;51.476;7.770;2024-01-30T15:18:17;11.20;99.90
30764;DHT22;17497;51.476;7.770;2024-01-30T15:20:44;11.20;99.90
30764;DHT22;17497;51.476;7.770;2024-01-30T15:23:13;11.10;99.90
30764;DHT22;17497;51.476;7.770;2024-01-30T15:25:43;11.20;99.90
30764;DHT22;17497;51.476;7.770;2024-01-30T15:28:10;11.20;99.90
30764;DHT22;17497;51.476;7.770;2024-01-30T15:30:40;11.20;99.90
30764;DHT22;17497;51.476;7.770;2024-01-30T15:33:09;11.10;99.90
30764;DHT22;17497;51.476;7.770;2024-01-30T15:35:36;11.10;99.90
30764;DHT22;17497;51.476;7.770;2024-01-30T15:38:04;11.10;99.90
30764;DHT22;17497;51.476;7.770;2024-01-30T15:40:35;11.20;99.90
30764;DHT22;17497;51.476;7.770;2024-01-30T15:43:01;11.10;99.90
30764;DHT22;17497;51.476;7.770;2024-01-30T15:45:28;11.10;99.90
30764;DHT22;17497;51.476;7.770;2024-01-30T15:47:55;11.00;99.90
30764;DHT22;17497;51.476;7.770;2024-01-30T15:50:21;11.00;99.90
30764;DHT22;17497;51.476;7.770;2024-01-30T15:52:48;11.00;99.90
30764;DHT22;17497;51.476;7.770;2024-01-30T15:55:15;11.00;99.90
30764;DHT22;17497;51.476;7.770;2024-01-30T15:57:42;11.00;99.90
30764;DHT22;17497;51.476;7.770;2024-01-30T16:00:08;11.00;99.90
30764;DHT22;17497;51.476;7.770;2024-01-30T16:02:37;11.00;99.90
30764;DHT22;17497;51.476;7.770;2024-01-30T16:05:04;11.00;99.90
30764;DHT22;17497;51.476;7.770;2024-01-30T16:07:34;11.00;99.90
30764;DHT22;17497;51.476;7.770;2024-01-30T16:10:00;11.00;99.90
30764;DHT22;17497;51.476;7.770;2024-01-30T16:12:28;11.10;99.90
30764;DHT22;17497;51.476;7.770;2024-01-30T16:14:55;11.10;99.90
30764;DHT22;17497;51.476;7.770;2024-01-30T16:17:21;11.00;99.90
30764;DHT22;17497;51.476;7.770;2024-01-30T16:19:48;11.00;99.90
30764;DHT22;17497;51.476;7.770;2024-01-30T16:22:18;11.00;99.90
30764;DHT22;17497;51.476;7.770;2024-01-30T16:24:45;11.00;99.90
30764;DHT22;17497;51.476;7.770;2024-01-30T16:27:13;11.00;99.90
30764;DHT22;17497;51.476;7.770;2024-01-30T16:29:40;11.00;99.90
30764;DHT22;17497;51.476;7.770;2024-01-30T16:32:09;10.90;99.90
30764;DHT22;17497;51.476;7.770;2024-01-30T16:34:36;10.90;99.90
30764;DHT22;17497;51.476;7.770;2024-01-30T16:37:03;10.90;99.90
30764;DHT22;17497;51.476;7.770;2024-01-30T16:39:30;10.80;99.90
30764;DHT22;17497;51.476;7.770;2024-01-30T16:41:56;10.80;99.90
30764;DHT22;17497;51.476;7.770;2024-01-30T16:44:23;10.80;99.90
30764;DHT22;17497;51.476;7.770;2024-01-30T16:46:50;10.70;99.90
30764;DHT22;17497;51.476;7.770;2024-01-30T16:49:18;10.70;99.90
30764;DHT22;17497;51.476;7.770;2024-01-30T16:51:44;10.70;99.90
30764;DHT22;17497;51.476;7.770;2024-01-30T16:54:11;10.70;99.90
30764;DHT22;17497;51.476;7.770;2024-01-30T16:56:38;10.70;99.90
30764;DHT22;17497;51.476;7.770;2024-01-30T16:59:04;10.60;99.90
30764;DHT22;17497;51.476;7.770;2024-01-30T17:01:31;10.50;99.90
30764;DHT22;17497;51.476;7.770;2024-01-30T17:03:58;10.50;99.90